Time;durP1;ratioP1;P1;durP2;ratioP2;P2;SDS_P1;SDS_P2;PMS_P1;PMS_P2;Temp;Humidity;BMP_temperature;BMP_pressure;BME280_temperature;BME280_humidity;BME280_pressure;Samples;Min_cycle;Max_cycle;Signal;HPM_P1;HPM_P2
2022/01/08 00:01:14;;;;;;;11.57;6.13;;;2.60;52.30;;;;;;5053384;28;20592;-75
2022/01/08 00:03:40;;;;;;;11.47;6.53;;;2.60;52.10;;;;;;5053343;28;20029;-75
2022/01/08 00:06:07;;;;;;;9.53;5.70;;;2.60;52.50;;;;;;5053035;28;20103;-76
2022/01/08 00:08:33;;;;;;;13.07;6.07;;;2.60;52.80;;;;;;5053485;28;20029;-76
2022/01/08 00:10:59;;;;;;;9.57;6.13;;;2.60;53.00;;;;;;5053290;28;20503;-75
2022/01/08 00:13:25;;;;;;;11.63;6.37;;;2.60;53.10;;;;;;5053139;28;20481;-76
2022/01/08 00:15:50;;;;;;;12.37;6.30;;;2.50;53.30;;;;;;5053352;28;20036;-75
2022/01/08 00:18:16;;;;;;;11.47;6.80;;;2.50;53.40;;;;;;5053495;28;20017;-76
2022/01/08 00:20:42;;;;;;;9.43;6.17;;;2.50;53.40;;;;;;5052866;28;20049;-76
2022/01/08 00:23:08;;;;;;;13.03;7.03;;;2.50;53.30;;;;;;5052963;28;20099;-75
2022/01/08 00:25:33;;;;;;;11.17;6.33;;;2.50;53.60;;;;;;5052588;28;20025;-76
2022/01/08 00:27:59;;;;;;;9.77;5.73;;;2.40;54.80;;;;;;5053081;28;20032;-75
2022/01/08 00:30:25;;;;;;;11.70;6.30;;;2.40;54.80;;;;;;5052953;28;20389;-76
2022/01/08 00:32:51;;;;;;;13.23;6.67;;;2.30;54.70;;;;;;5052993;28;20109;-75
2022/01/08 00:35:17;;;;;;;12.17;6.43;;;2.30;55.60;;;;;;5052774;28;20025;-76
2022/01/08 00:37:43;;;;;;;13.60;6.83;;;2.20;54.80;;;;;;5052764;28;20036;-75
2022/01/08 00:40:10;;;;;;;12.00;6.80;;;2.20;55.90;;;;;;5052888;28;20025;-76
2022/01/08 00:42:37;;;;;;;10.23;6.60;;;2.10;56.10;;;;;;5053304;28;20025;-76
2022/01/08 00:45:07;;;;;;;14.57;7.07;;;2.00;56.60;;;;;;5052756;28;20036;-76
2022/01/08 00:47:33;;;;;;;15.47;7.80;;;2.00;55.90;;;;;;5052511;28;20454;-75
2022/01/08 00:49:59;;;;;;;14.20;8.27;;;2.10;56.00;;;;;;5052712;28;20053;-75
2022/01/08 00:52:25;;;;;;;12.33;7.57;;;1.90;55.60;;;;;;5052896;28;20038;-76
2022/01/08 00:54:51;;;;;;;14.20;7.67;;;1.80;55.90;;;;;;5052641;28;20029;-75
2022/01/08 00:57:16;;;;;;;15.80;8.27;;;1.90;56.10;;;;;;5052555;28;20040;-75
2022/01/08 00:59:42;;;;;;;12.10;7.30;;;1.80;56.50;;;;;;5052888;28;20424;-75
2022/01/08 01:02:08;;;;;;;14.77;6.30;;;1.90;55.80;;;;;;5052775;28;20535;-75
2022/01/08 01:04:34;;;;;;;11.90;6.50;;;1.90;55.60;;;;;;5052886;28;20025;-75
2022/01/08 01:07:00;;;;;;;10.77;6.07;;;1.90;55.40;;;;;;5056544;28;20080;-75
2022/01/08 01:09:25;;;;;;;11.07;6.00;;;2.00;55.00;;;;;;5056500;28;20021;-75
2022/01/08 01:11:55;;;;;;;10.67;5.27;;;2.00;54.10;;;;;;5056670;28;20064;-75
2022/01/08 01:14:22;;;;;;;12.80;6.00;;;2.00;53.80;;;;;;5056573;28;20470;-75
2022/01/08 01:16:47;;;;;;;9.87;5.80;;;2.10;53.40;;;;;;5056360;28;20056;-75
2022/01/08 01:19:13;;;;;;;10.03;5.37;;;2.10;53.30;;;;;;5056357;28;20402;-74
2022/01/08 01:21:39;;;;;;;8.97;5.87;;;2.20;52.90;;;;;;5056383;28;20112;-75
2022/01/08 01:24:11;;;;;;;8.83;5.17;;;2.10;53.00;;;;;;5056444;28;20029;-76
2022/01/08 01:26:41;;;;;;;8.88;5.78;;;2.20;52.10;;;;;;5054867;28;20421;-74
2022/01/08 01:48:00;;;;;;;9.63;5.23;;;1.80;54.40;;;;;;5056283;28;20052;-75
2022/01/08 01:50:25;;;;;;;9.27;5.50;;;1.80;54.80;;;;;;5055816;28;20389;-75
2022/01/08 01:52:51;;;;;;;9.03;5.53;;;1.80;54.50;;;;;;5055879;28;20098;-74
2022/01/08 01:55:17;;;;;;;8.73;5.17;;;1.70;54.40;;;;;;5055879;28;20029;-75
2022/01/08 01:57:42;;;;;;;9.37;5.17;;;1.60;54.20;;;;;;5054791;28;20385;-75
2022/01/08 02:00:09;;;;;;;10.33;5.93;;;1.60;55.30;;;;;;5052861;28;20025;-75
2022/01/08 02:02:34;;;;;;;8.80;4.90;;;1.60;54.40;;;;;;5052770;28;20025;-75
2022/01/08 02:05:00;;;;;;;9.07;5.07;;;1.60;56.20;;;;;;5054547;28;20435;-75
2022/01/08 02:07:28;;;;;;;12.87;5.40;;;1.60;55.50;;;;;;5055620;28;20112;-75
2022/01/08 02:09:55;;;;;;;10.93;5.30;;;1.50;54.80;;;;;;5055532;28;20032;-75
2022/01/08 02:12:22;;;;;;;10.00;5.27;;;1.50;56.60;;;;;;5055474;28;20028;-75
2022/01/08 02:14:48;;;;;;;8.97;5.10;;;1.50;56.90;;;;;;5055101;28;20020;-75
2022/01/08 02:17:15;;;;;;;10.57;5.90;;;1.50;55.60;;;;;;5054683;28;20032;-74
2022/01/08 02:19:41;;;;;;;10.97;5.97;;;1.50;56.90;;;;;;5053557;28;20052;-75
2022/01/08 02:22:10;;;;;;;9.27;6.03;;;1.50;56.70;;;;;;5054784;28;20033;-75
2022/01/08 02:24:37;;;;;;;8.07;5.43;;;1.50;56.80;;;;;;5055075;28;20024;-75
2022/01/08 02:27:02;;;;;;;10.90;6.13;;;1.50;56.80;;;;;;5054941;28;20048;-75
2022/01/08 02:29:28;;;;;;;10.47;5.63;;;1.50;56.00;;;;;;5055012;28;20399;-75
2022/01/08 02:32:06;;;;;;;8.73;5.10;;;1.50;56.60;;;;;;5055338;28;20540;-75
2022/01/08 02:34:32;;;;;;;11.27;5.67;;;1.50;56.50;;;;;;5055189;28;20075;-74
2022/01/08 02:36:59;;;;;;;10.83;5.70;;;1.50;56.90;;;;;;5054848;28;20079;-75
2022/01/08 02:39:26;;;;;;;8.00;4.80;;;1.40;58.70;;;;;;5054941;28;20021;-75
2022/01/08 02:41:57;;;;;;;9.63;5.33;;;1.40;57.60;;;;;;5054750;28;20017;-75
2022/01/08 02:44:23;;;;;;;7.57;4.90;;;1.40;57.90;;;;;;5054722;28;20489;-75
2022/01/08 02:46:49;;;;;;;9.33;5.37;;;1.40;56.70;;;;;;5055111;28;20389;-75
2022/01/08 02:49:15;;;;;;;9.07;5.40;;;1.30;56.70;;;;;;5053343;28;20025;-75
2022/01/08 02:51:41;;;;;;;8.53;4.83;;;1.30;57.30;;;;;;5054328;28;20025;-75
2022/01/08 02:54:11;;;;;;;8.93;5.17;;;1.30;55.90;;;;;;5054267;28;20480;-75
2022/01/08 02:56:41;;;;;;;9.77;5.33;;;1.30;57.90;;;;;;5054334;28;20040;-75
2022/01/08 02:59:08;;;;;;;10.60;5.30;;;1.30;58.80;;;;;;5054361;28;20032;-75
2022/01/08 03:01:35;;;;;;;9.00;4.70;;;1.30;56.70;;;;;;5054865;28;20171;-75
2022/01/08 03:04:01;;;;;;;9.90;5.10;;;1.20;58.20;;;;;;5054551;28;20059;-75
2022/01/08 03:06:27;;;;;;;10.87;5.40;;;1.20;58.70;;;;;;5054427;28;20037;-75
2022/01/08 03:08:53;;;;;;;7.97;4.77;;;1.20;59.90;;;;;;5054296;28;20021;-75
2022/01/08 03:11:18;;;;;;;10.63;4.83;;;1.20;59.40;;;;;;5054337;28;20029;-75
2022/01/08 03:13:44;;;;;;;8.63;5.13;;;1.20;58.20;;;;;;5054274;28;20469;-75
2022/01/08 03:16:10;;;;;;;9.90;5.00;;;1.30;56.80;;;;;;5054514;28;20465;-75
2022/01/08 03:18:37;;;;;;;11.30;4.87;;;1.30;56.80;;;;;;5054152;28;20032;-75
2022/01/08 03:21:13;;;;;;;7.60;4.73;;;1.20;57.90;;;;;;5054053;28;20048;-75
2022/01/08 03:23:47;;;;;;;8.53;4.97;;;1.20;57.70;;;;;;5054358;28;20024;-75
2022/01/08 03:26:13;;;;;;;8.57;5.07;;;1.10;58.90;;;;;;5053748;28;20059;-76
2022/01/08 03:28:39;;;;;;;9.30;5.40;;;1.00;58.50;;;;;;5053019;28;20041;-75
2022/01/08 03:31:04;;;;;;;9.60;5.23;;;1.00;59.60;;;;;;5053991;28;20441;-75
2022/01/08 03:33:30;;;;;;;8.90;5.30;;;1.00;60.00;;;;;;5053948;28;20029;-75
2022/01/08 03:35:56;;;;;;;9.67;5.63;;;1.00;59.20;;;;;;5053580;28;20032;-75
2022/01/08 03:38:21;;;;;;;8.13;5.10;;;0.90;59.40;;;;;;5053887;28;20036;-75
2022/01/08 03:40:47;;;;;;;9.17;4.63;;;0.90;59.70;;;;;;5053576;28;20021;-74
2022/01/08 03:43:13;;;;;;;8.27;4.90;;;0.80;59.40;;;;;;5053715;28;20024;-75
2022/01/08 03:45:39;;;;;;;8.07;5.37;;;0.80;60.30;;;;;;5053544;28;20425;-74
2022/01/08 03:48:17;;;;;;;9.27;5.30;;;0.90;60.10;;;;;;5053574;28;20036;-74
2022/01/08 03:50:43;;;;;;;9.07;5.50;;;0.80;60.00;;;;;;5053457;28;20049;-74
2022/01/08 03:53:09;;;;;;;10.37;5.70;;;0.80;59.80;;;;;;5053528;28;20435;-74
2022/01/08 03:55:34;;;;;;;9.93;5.57;;;0.80;60.10;;;;;;5053522;28;20359;-75
2022/01/08 03:58:00;;;;;;;12.43;6.73;;;0.80;60.20;;;;;;5053575;28;20033;-75
2022/01/08 04:00:27;;;;;;;10.97;6.33;;;0.80;60.60;;;;;;5053835;28;20068;-75
2022/01/08 04:02:53;;;;;;;10.53;6.20;;;0.70;60.40;;;;;;5053369;28;20489;-75
2022/01/08 04:05:20;;;;;;;10.10;6.27;;;0.70;60.90;;;;;;5052266;28;20428;-75
2022/01/08 04:07:45;;;;;;;12.37;7.10;;;0.70;61.40;;;;;;5053331;28;20037;-75
2022/01/08 04:10:11;;;;;;;10.80;6.37;;;0.60;61.90;;;;;;5053154;28;20090;-75
2022/01/08 04:12:43;;;;;;;11.50;6.50;;;0.60;61.90;;;;;;5053437;28;20044;-75
2022/01/08 04:15:31;;;;;;;12.77;6.87;;;0.60;62.60;;;;;;5053248;28;20028;-75
2022/01/08 04:17:55;;;;;;;10.40;5.93;;;0.60;62.60;;;;;;5053191;28;20037;-74
2022/01/08 04:20:22;;;;;;;11.10;5.80;;;0.60;61.90;;;;;;5052914;28;20494;-75
2022/01/08 04:22:50;;;;;;;9.77;5.57;;;0.60;62.50;;;;;;5053267;28;20029;-75
2022/01/08 04:25:18;;;;;;;11.00;6.33;;;0.60;61.60;;;;;;5053313;28;20032;-75
2022/01/08 04:27:45;;;;;;;10.47;5.87;;;0.60;62.50;;;;;;5053053;28;20113;-74
2022/01/08 04:30:11;;;;;;;11.07;6.10;;;0.60;62.80;;;;;;5052909;28;20028;-74
2022/01/08 04:32:36;;;;;;;9.90;5.70;;;0.50;62.70;;;;;;5053090;28;20025;-74
2022/01/08 04:35:03;;;;;;;8.40;5.00;;;0.50;62.30;;;;;;5053014;28;20021;-75
2022/01/08 04:37:29;;;;;;;9.03;5.30;;;0.50;62.30;;;;;;5051940;28;20163;-75
2022/01/08 04:39:55;;;;;;;9.50;4.80;;;0.60;61.70;;;;;;5052686;28;20029;-75
2022/01/08 04:42:20;;;;;;;9.13;5.47;;;0.60;62.10;;;;;;5052874;28;20366;-74
2022/01/08 04:44:46;;;;;;;11.30;5.43;;;0.60;61.80;;;;;;5051582;28;20044;-75
2022/01/08 04:47:11;;;;;;;11.23;6.13;;;0.60;61.60;;;;;;5052911;28;20029;-75
2022/01/08 04:49:37;;;;;;;10.03;5.90;;;0.60;61.10;;;;;;5053118;28;20080;-75
2022/01/08 04:52:03;;;;;;;10.93;5.67;;;0.70;60.40;;;;;;5052903;28;20029;-75
2022/01/08 04:54:29;;;;;;;9.63;5.67;;;0.70;60.90;;;;;;5052891;28;20052;-75
2022/01/08 04:56:55;;;;;;;10.20;4.93;;;0.70;60.50;;;;;;5053165;28;20067;-75
2022/01/08 04:59:20;;;;;;;9.60;4.90;;;0.60;60.60;;;;;;5052927;28;20021;-75
2022/01/08 05:01:46;;;;;;;8.30;5.00;;;0.50;60.20;;;;;;5052701;28;20021;-75
2022/01/08 05:04:12;;;;;;;9.10;5.33;;;0.50;60.10;;;;;;5052955;28;20025;-75
2022/01/08 05:06:37;;;;;;;12.50;5.60;;;0.50;60.00;;;;;;5051534;28;20043;-75
2022/01/08 05:09:04;;;;;;;10.23;5.40;;;0.50;60.10;;;;;;5052831;28;20354;-74
2022/01/08 05:11:30;;;;;;;10.87;4.70;;;0.50;60.30;;;;;;5052691;28;20032;-74
2022/01/08 05:13:57;;;;;;;10.20;4.83;;;0.50;60.40;;;;;;5051567;28;20033;-75
2022/01/08 05:16:24;;;;;;;8.13;4.53;;;0.50;59.90;;;;;;5052758;28;20021;-75
2022/01/08 05:18:52;;;;;;;7.47;4.57;;;0.50;60.10;;;;;;5051105;28;20029;-74
2022/01/08 05:21:27;;;;;;;8.30;4.67;;;0.50;60.90;;;;;;5052362;28;20033;-75
2022/01/08 05:23:53;;;;;;;10.23;4.30;;;0.40;60.00;;;;;;5052752;28;20033;-75
2022/01/08 05:26:20;;;;;;;7.00;4.30;;;0.40;59.30;;;;;;5052391;28;20043;-75
2022/01/08 05:28:46;;;;;;;7.83;3.97;;;0.40;59.90;;;;;;5052883;28;20025;-75
2022/01/08 05:31:15;;;;;;;7.73;4.43;;;0.40;60.20;;;;;;5052721;28;20389;-75
2022/01/08 05:33:41;;;;;;;8.70;4.80;;;0.40;59.60;;;;;;5052725;28;20021;-75
2022/01/08 05:36:06;;;;;;;8.53;4.60;;;0.40;59.60;;;;;;5052522;28;20040;-74
2022/01/08 05:38:32;;;;;;;7.53;4.40;;;0.40;59.60;;;;;;5052518;28;20017;-75
2022/01/08 05:40:58;;;;;;;7.50;4.67;;;0.40;60.00;;;;;;5052417;28;20035;-75
2022/01/08 05:43:24;;;;;;;7.53;4.70;;;0.50;60.10;;;;;;5052417;28;20501;-74
2022/01/08 05:45:49;;;;;;;9.13;4.80;;;0.50;60.50;;;;;;5051256;28;20044;-75
2022/01/08 05:48:15;;;;;;;9.47;5.43;;;0.50;60.50;;;;;;5052338;28;20037;-75
2022/01/08 05:50:41;;;;;;;9.20;5.20;;;0.50;60.70;;;;;;5052958;28;20419;-75
2022/01/08 05:53:07;;;;;;;7.53;4.60;;;0.60;60.60;;;;;;5055003;28;20033;-75
2022/01/08 05:55:32;;;;;;;9.70;4.90;;;0.60;60.20;;;;;;5055795;28;20522;-75
2022/01/08 05:57:58;;;;;;;8.80;4.90;;;0.60;60.60;;;;;;5055869;28;20028;-74
2022/01/08 06:00:24;;;;;;;10.10;5.20;;;0.50;60.60;;;;;;5055605;28;20053;-75
2022/01/08 06:02:50;;;;;;;13.03;5.20;;;0.50;60.20;;;;;;5055729;28;20036;-75
2022/01/08 06:05:15;;;;;;;11.77;4.87;;;0.60;60.10;;;;;;5056094;28;20036;-75
2022/01/08 06:07:41;;;;;;;11.70;4.67;;;0.60;59.50;;;;;;5055766;28;20037;-75
2022/01/08 06:10:07;;;;;;;9.53;5.10;;;0.50;59.80;;;;;;5055848;28;20029;-75
2022/01/08 06:12:33;;;;;;;9.37;4.60;;;0.50;60.20;;;;;;5055687;28;20082;-75
2022/01/08 06:14:58;;;;;;;8.90;4.83;;;0.50;58.90;;;;;;5055496;28;20436;-75
2022/01/08 06:17:24;;;;;;;8.73;4.47;;;0.50;58.70;;;;;;5054313;28;20473;-75
2022/01/08 06:19:50;;;;;;;9.57;4.23;;;0.60;58.80;;;;;;5055365;28;20056;-74
2022/01/08 06:22:16;;;;;;;8.17;4.60;;;0.50;58.80;;;;;;5055402;28;20025;-75
2022/01/08 06:24:42;;;;;;;7.13;4.03;;;0.60;58.80;;;;;;5055288;28;20029;-75
2022/01/08 06:27:08;;;;;;;7.77;4.27;;;0.50;58.40;;;;;;5055161;28;20393;-75
2022/01/08 06:29:33;;;;;;;6.40;3.40;;;0.60;57.60;;;;;;5055216;28;20059;-75
2022/01/08 06:31:59;;;;;;;7.90;3.73;;;0.60;57.80;;;;;;5055148;28;20060;-74
2022/01/08 06:34:25;;;;;;;9.60;4.50;;;0.60;57.50;;;;;;5055338;28;20032;-75
2022/01/08 06:36:50;;;;;;;9.17;4.07;;;0.60;57.10;;;;;;5055121;28;20029;-75
2022/01/08 06:39:17;;;;;;;6.10;3.90;;;0.60;57.10;;;;;;5055337;28;20104;-75
2022/01/08 06:41:43;;;;;;;8.90;4.53;;;0.60;56.80;;;;;;5055169;28;20412;-75
2022/01/08 06:44:09;;;;;;;8.37;3.90;;;0.50;57.60;;;;;;5054548;28;20032;-74
2022/01/08 06:46:34;;;;;;;7.90;4.30;;;0.50;58.10;;;;;;5054759;28;20047;-74
2022/01/08 06:49:00;;;;;;;9.23;4.53;;;0.60;57.50;;;;;;5054667;28;20029;-74
2022/01/08 06:51:26;;;;;;;7.73;4.47;;;0.60;57.40;;;;;;5054890;28;20044;-76
2022/01/08 06:53:52;;;;;;;9.53;4.83;;;0.60;57.70;;;;;;5054915;28;20162;-75
2022/01/08 06:56:18;;;;;;;9.83;5.57;;;0.60;56.80;;;;;;5054809;28;20470;-75
2022/01/08 06:58:45;;;;;;;13.80;5.50;;;0.60;57.10;;;;;;5054461;28;20037;-75
2022/01/08 07:01:11;;;;;;;8.17;4.00;;;0.50;57.70;;;;;;5054738;28;20466;-76
2022/01/08 07:03:36;;;;;;;11.73;4.53;;;0.50;58.10;;;;;;5054189;28;20150;-75
2022/01/08 07:06:02;;;;;;;8.57;4.63;;;0.50;58.30;;;;;;5054808;28;20033;-75
2022/01/08 07:08:28;;;;;;;8.90;4.53;;;0.50;58.10;;;;;;5054423;28;20155;-76
2022/01/08 07:10:54;;;;;;;8.20;4.70;;;0.50;58.50;;;;;;5054207;28;20481;-76
2022/01/08 07:13:19;;;;;;;12.40;5.80;;;0.50;57.60;;;;;;5054335;28;20524;-76
2022/01/08 07:15:45;;;;;;;9.90;4.60;;;0.50;57.30;;;;;;5054371;28;20039;-75
2022/01/08 07:18:11;;;;;;;8.53;5.10;;;0.50;58.80;;;;;;5054258;28;20049;-76
2022/01/08 07:20:37;;;;;;;9.93;4.93;;;0.50;58.50;;;;;;5054631;28;20045;-76
2022/01/08 07:23:03;;;;;;;9.90;5.00;;;0.60;59.80;;;;;;5054241;28;20025;-75
2022/01/08 07:25:28;;;;;;;7.53;4.43;;;0.50;59.10;;;;;;5054124;28;20035;-76
2022/01/08 07:27:54;;;;;;;7.80;4.37;;;0.50;58.90;;;;;;5054017;28;20477;-75
2022/01/08 07:30:20;;;;;;;8.53;4.47;;;0.50;58.10;;;;;;5053937;28;20021;-76
2022/01/08 07:32:48;;;;;;;9.37;5.10;;;0.50;58.20;;;;;;5052056;28;20032;-76
2022/01/08 07:35:16;;;;;;;10.23;5.10;;;0.60;59.50;;;;;;5054348;28;20044;-75
2022/01/08 07:37:43;;;;;;;12.30;5.57;;;0.60;58.90;;;;;;5054392;28;20017;-76
2022/01/08 07:40:10;;;;;;;10.93;5.40;;;0.70;57.90;;;;;;5054071;28;20028;-75
2022/01/08 07:42:37;;;;;;;9.80;5.47;;;0.70;57.30;;;;;;5053995;28;20110;-75
2022/01/08 07:45:04;;;;;;;10.37;4.97;;;0.70;57.60;;;;;;5062558;28;20388;-74
2022/01/08 07:47:29;;;;;;;9.60;5.30;;;0.80;57.60;;;;;;5068334;28;20032;-76
2022/01/08 07:49:55;;;;;;;12.50;6.10;;;0.90;57.20;;;;;;5053629;28;20021;-75
2022/01/08 07:52:21;;;;;;;11.50;6.60;;;1.00;56.90;;;;;;5053472;28;20056;-76
2022/01/08 07:54:47;;;;;;;17.60;6.97;;;1.00;57.20;;;;;;5051713;28;20032;-75
2022/01/08 07:57:13;;;;;;;12.37;6.40;;;1.10;57.20;;;;;;5053391;28;20021;-76
2022/01/08 07:59:39;;;;;;;11.90;6.73;;;1.10;57.90;;;;;;5053249;28;20024;-76
2022/01/08 08:02:04;;;;;;;12.60;6.43;;;1.20;59.00;;;;;;5061606;28;20108;-75
2022/01/08 08:04:30;;;;;;;10.57;6.33;;;1.30;59.30;;;;;;5072810;28;20025;-74
2022/01/08 08:06:56;;;;;;;12.63;6.53;;;1.30;58.90;;;;;;5072444;28;20039;-75
2022/01/08 08:09:21;;;;;;;12.07;6.90;;;1.40;59.20;;;;;;5072988;28;20021;-74
2022/01/08 08:11:47;;;;;;;17.77;7.20;;;1.50;59.20;;;;;;5072744;28;20025;-75
2022/01/08 08:14:13;;;;;;;13.47;6.13;;;1.60;59.10;;;;;;5072252;28;20251;-75
2022/01/08 08:16:38;;;;;;;11.63;5.97;;;1.60;58.70;;;;;;5056136;28;20029;-75
2022/01/08 08:19:04;;;;;;;11.50;5.57;;;1.80;57.90;;;;;;5068775;28;20041;-74
2022/01/08 08:21:30;;;;;;;15.30;6.23;;;1.80;57.80;;;;;;5072803;28;20045;-76
2022/01/08 08:23:56;;;;;;;11.80;6.10;;;1.90;57.20;;;;;;5072525;28;20024;-76
2022/01/08 08:26:21;;;;;;;12.63;5.73;;;2.00;56.40;;;;;;5072581;28;20430;-74
2022/01/08 08:28:47;;;;;;;9.27;5.53;;;2.10;56.40;;;;;;5072700;28;20027;-75
2022/01/08 08:31:13;;;;;;;9.53;4.67;;;2.10;55.90;;;;;;5072838;28;20096;-75
2022/01/08 08:33:39;;;;;;;10.77;4.93;;;2.20;54.40;;;;;;5072646;28;20397;-75
2022/01/08 08:36:05;;;;;;;12.30;5.83;;;2.20;53.80;;;;;;5072741;28;20028;-75
2022/01/08 08:38:31;;;;;;;11.73;5.63;;;2.40;53.50;;;;;;5072640;28;20021;-76
2022/01/08 08:40:57;;;;;;;13.00;5.23;;;2.40;52.70;;;;;;5072747;28;20029;-76
2022/01/08 08:43:23;;;;;;;17.23;6.27;;;2.50;52.90;;;;;;5072421;28;20028;-75
2022/01/08 08:45:49;;;;;;;14.80;6.17;;;2.50;52.70;;;;;;5072762;28;20029;-75
2022/01/08 08:48:16;;;;;;;11.13;5.80;;;2.60;52.30;;;;;;5072636;28;20558;-75
2022/01/08 08:50:43;;;;;;;11.63;4.87;;;2.70;52.30;;;;;;5072364;28;20029;-76
2022/01/08 08:53:09;;;;;;;8.57;4.30;;;2.70;51.70;;;;;;5072618;28;20485;-76
2022/01/08 08:55:35;;;;;;;8.47;4.20;;;2.80;50.70;;;;;;5072604;28;20023;-75
2022/01/08 08:58:00;;;;;;;8.23;4.63;;;2.80;49.00;;;;;;5072557;28;20021;-76
2022/01/08 09:00:26;;;;;;;9.97;5.07;;;2.80;49.30;;;;;;5072681;28;20032;-75
2022/01/08 09:02:52;;;;;;;9.60;4.67;;;2.90;49.00;;;;;;5072564;28;20020;-75
2022/01/08 09:05:18;;;;;;;9.13;4.63;;;2.90;49.30;;;;;;5072364;28;20094;-76
2022/01/08 09:07:44;;;;;;;8.20;4.80;;;3.00;49.40;;;;;;5071846;28;20040;-77
2022/01/08 09:10:10;;;;;;;9.83;5.13;;;3.00;49.00;;;;;;5072673;28;20024;-77
2022/01/08 09:12:41;;;;;;;11.07;4.90;;;3.00;49.30;;;;;;5070665;28;20485;-72
2022/01/08 09:15:09;;;;;;;10.27;4.67;;;3.10;48.80;;;;;;5069774;28;20470;-72
2022/01/08 09:17:39;;;;;;;9.67;4.50;;;3.10;48.80;;;;;;5069470;28;20426;-72
2022/01/08 09:20:06;;;;;;;9.23;5.13;;;3.20;48.40;;;;;;5072370;28;20048;-76
2022/01/08 09:22:32;;;;;;;8.77;4.60;;;3.30;48.40;;;;;;5072497;28;20028;-75
2022/01/08 09:24:58;;;;;;;8.90;4.80;;;3.30;48.50;;;;;;5072558;28;20023;-77
2022/01/08 09:27:24;;;;;;;9.27;4.37;;;3.40;48.10;;;;;;5075532;28;20524;-77
2022/01/08 09:29:50;;;;;;;6.33;3.50;;;3.40;47.20;;;;;;5076351;28;20032;-73
2022/01/08 09:32:17;;;;;;;6.93;4.03;;;3.50;46.80;;;;;;5076551;28;20036;-74
2022/01/08 09:34:45;;;;;;;5.77;3.13;;;3.60;46.90;;;;;;5075869;28;20821;-75
2022/01/08 09:37:11;;;;;;;6.67;3.03;;;3.60;45.00;;;;;;5076220;28;20035;-75
2022/01/08 09:39:39;;;;;;;7.83;3.63;;;3.70;44.40;;;;;;5075774;28;20395;-73
2022/01/08 09:42:08;;;;;;;9.80;4.20;;;3.70;44.90;;;;;;5073455;28;20042;-73
2022/01/08 09:44:37;;;;;;;6.27;3.50;;;3.80;45.10;;;;;;5073107;28;20025;-73
2022/01/08 09:47:04;;;;;;;7.63;3.37;;;3.80;45.40;;;;;;5074630;28;20123;-72
2022/01/08 09:49:30;;;;;;;5.63;3.33;;;3.90;44.40;;;;;;5075255;28;20495;-73
2022/01/08 09:51:55;;;;;;;5.53;3.13;;;4.00;44.40;;;;;;5074812;28;20033;-72
2022/01/08 09:54:21;;;;;;;6.17;3.43;;;4.00;43.70;;;;;;5073578;28;20426;-73
2022/01/08 09:56:47;;;;;;;6.47;3.50;;;4.10;44.70;;;;;;5075736;28;20082;-73
2022/01/08 09:59:13;;;;;;;7.07;3.20;;;4.10;44.80;;;;;;5075794;28;20024;-72
2022/01/08 10:01:38;;;;;;;8.73;3.83;;;4.20;45.20;;;;;;5074577;28;20021;-72
2022/01/08 10:04:05;;;;;;;9.57;4.00;;;4.20;44.60;;;;;;5075421;28;20059;-73
2022/01/08 10:06:33;;;;;;;5.97;3.10;;;4.30;45.00;;;;;;5075279;28;20024;-72
2022/01/08 10:08:59;;;;;;;5.97;3.27;;;4.40;43.80;;;;;;5075009;28;20025;-72
2022/01/08 10:11:28;;;;;;;7.73;3.23;;;4.40;43.60;;;;;;5075224;28;20095;-72
2022/01/08 10:14:04;;;;;;;5.47;2.80;;;4.50;43.10;;;;;;5075713;28;20021;-72
2022/01/08 10:19:21;;;;;;;5.00;2.60;;;4.60;42.70;;;;;;5075716;28;20081;-71
2022/01/08 10:21:48;;;;;;;7.37;3.57;;;4.70;43.40;;;;;;5075650;28;20029;-72
2022/01/08 10:24:20;;;;;;;6.53;2.73;;;4.70;43.20;;;;;;5075174;28;20024;-73
2022/01/08 10:26:49;;;;;;;4.82;2.83;;;4.80;41.50;;;;;;5075109;28;20107;-72
2022/01/08 10:29:17;;;;;;;6.57;2.67;;;4.90;41.30;;;;;;5075258;28;20036;-73
2022/01/08 10:31:46;;;;;;;6.87;2.67;;;4.90;40.70;;;;;;5075324;28;20501;-73
2022/01/08 10:34:15;;;;;;;5.13;2.63;;;5.00;41.20;;;;;;5075084;28;20465;-72
2022/01/08 10:36:49;;;;;;;7.90;2.70;;;5.10;41.10;;;;;;5075262;28;20071;-73
2022/01/08 10:39:23;;;;;;;3.87;2.30;;;5.20;41.50;;;;;;5074612;28;20031;-73
2022/01/08 10:41:52;;;;;;;3.47;1.90;;;5.30;41.40;;;;;;5074882;28;20036;-72
2022/01/08 10:44:20;;;;;;;4.70;2.33;;;5.30;41.50;;;;;;5074917;28;20518;-72
2022/01/08 10:46:51;;;;;;;5.53;2.47;;;5.40;40.80;;;;;;5074748;28;20036;-72
2022/01/08 10:49:26;;;;;;;4.27;2.30;;;5.50;41.10;;;;;;5074517;28;20024;-73
2022/01/08 10:51:56;;;;;;;4.80;2.67;;;5.50;41.10;;;;;;5074557;28;20033;-72
2022/01/08 10:54:26;;;;;;;4.77;2.53;;;5.70;40.80;;;;;;5074164;28;20025;-71
2022/01/08 10:56:56;;;;;;;4.77;2.40;;;5.70;39.80;;;;;;5074514;28;20056;-73
2022/01/08 10:59:23;;;;;;;4.83;2.40;;;5.80;39.90;;;;;;5071064;28;20469;-73
2022/01/08 11:02:02;;;;;;;4.50;2.30;;;5.90;39.20;;;;;;5071147;28;20032;-73
2022/01/08 11:04:40;;;;;;;3.93;1.93;;;5.90;39.10;;;;;;5072735;28;20091;-74
2022/01/08 11:07:10;;;;;;;7.47;2.57;;;6.00;38.30;;;;;;5074494;28;20111;-73
2022/01/08 11:09:38;;;;;;;4.03;2.37;;;6.00;38.50;;;;;;5074392;28;20535;-74
2022/01/08 11:12:06;;;;;;;4.43;2.00;;;6.10;37.30;;;;;;5074464;28;20488;-73
2022/01/08 11:17:30;;;;;;;4.93;2.37;;;6.20;37.40;;;;;;5074366;28;20119;-73
2022/01/08 11:20:07;;;;;;;5.57;2.47;;;6.30;37.20;;;;;;5074329;28;20374;-73
2022/01/08 11:22:35;;;;;;;5.57;2.30;;;6.40;37.90;;;;;;5073361;28;20032;-73
2022/01/08 11:25:03;;;;;;;6.23;2.53;;;6.40;38.20;;;;;;5071336;28;20033;-73
2022/01/08 11:27:43;;;;;;;3.63;2.20;;;6.50;37.80;;;;;;5071397;28;20044;-74
2022/01/08 11:30:13;;;;;;;4.00;2.10;;;6.50;37.40;;;;;;5072530;28;20116;-73
2022/01/08 11:32:40;;;;;;;5.47;2.50;;;6.60;37.10;;;;;;5074144;28;20503;-73
2022/01/08 11:35:08;;;;;;;5.83;2.70;;;6.70;37.30;;;;;;5073469;28;20108;-73
2022/01/08 11:37:34;;;;;;;4.50;2.50;;;6.70;37.10;;;;;;5073407;28;20419;-72
2022/01/08 11:40:06;;;;;;;4.83;2.30;;;6.80;37.80;;;;;;5073885;28;20024;-74
2022/01/08 11:42:34;;;;;;;4.57;2.20;;;6.90;38.20;;;;;;5073742;28;20488;-73
2022/01/08 11:45:01;;;;;;;3.53;2.50;;;6.90;36.50;;;;;;5072407;28;20035;-74
2022/01/08 11:47:29;;;;;;;6.03;2.33;;;6.90;36.70;;;;;;5073351;28;20480;-74
2022/01/08 11:49:57;;;;;;;3.83;2.13;;;7.00;36.30;;;;;;5072601;28;20048;-74
2022/01/08 11:52:24;;;;;;;6.17;2.60;;;7.00;36.80;;;;;;5073693;28;20035;-74
2022/01/08 11:54:55;;;;;;;5.07;2.30;;;7.00;36.20;;;;;;5074671;28;20099;-74
2022/01/08 11:57:26;;;;;;;4.67;2.50;;;7.00;37.20;;;;;;5074417;28;20039;-74
2022/01/08 11:59:57;;;;;;;6.10;2.60;;;7.10;36.60;;;;;;5075601;28;20499;-73
2022/01/08 12:02:33;;;;;;;4.30;2.47;;;7.10;36.30;;;;;;5073243;28;20032;-74
2022/01/08 12:04:59;;;;;;;3.50;2.20;;;7.10;36.50;;;;;;5073106;28;20082;-75
2022/01/08 12:07:39;;;;;;;4.73;2.10;;;7.20;36.60;;;;;;5072056;28;20451;-73
2022/01/08 12:10:14;;;;;;;3.53;2.00;;;7.20;35.60;;;;;;5073270;28;20029;-72
2022/01/08 12:12:42;;;;;;;5.00;1.90;;;7.20;35.80;;;;;;5073069;28;20032;-73
2022/01/08 12:15:08;;;;;;;4.50;2.07;;;7.30;35.00;;;;;;5072743;28;20033;-73
2022/01/08 12:17:57;;;;;;;4.30;1.90;;;7.30;35.70;;;;;;5072983;28;20027;-73
2022/01/08 12:20:48;;;;;;;3.60;1.73;;;7.30;35.60;;;;;;5073209;28;20053;-73
2022/01/08 12:23:34;;;;;;;4.47;2.13;;;7.40;35.70;;;;;;5073002;28;20030;-73
2022/01/08 12:26:21;;;;;;;5.00;2.63;;;7.40;34.50;;;;;;5072708;28;20024;-73
2022/01/08 12:28:46;;;;;;;3.57;2.27;;;7.40;34.50;;;;;;5072870;28;20040;-72
2022/01/08 12:31:21;;;;;;;3.67;2.27;;;7.40;34.60;;;;;;5072780;28;20495;-73
2022/01/08 12:33:47;;;;;;;3.73;1.97;;;7.50;34.70;;;;;;5073552;28;20034;-73
2022/01/08 12:36:31;;;;;;;3.63;1.97;;;7.50;35.20;;;;;;5073130;28;20032;-73
2022/01/08 12:39:06;;;;;;;4.10;2.00;;;7.60;35.10;;;;;;5072920;28;20029;-73
2022/01/08 12:41:31;;;;;;;4.33;1.87;;;7.50;33.90;;;;;;5073068;28;20036;-72
2022/01/08 12:44:26;;;;;;;7.33;2.27;;;7.60;35.30;;;;;;5072851;28;20492;-72
2022/01/08 12:46:52;;;;;;;4.00;2.17;;;7.60;34.40;;;;;;5072461;28;20107;-72
2022/01/08 12:49:18;;;;;;;3.07;1.80;;;7.50;33.90;;;;;;5071078;28;20036;-73
2022/01/08 12:51:51;;;;;;;6.50;2.40;;;7.60;32.90;;;;;;5072480;28;20481;-73
2022/01/08 12:54:22;;;;;;;3.95;2.10;;;7.60;33.80;;;;;;5070968;28;20666;-73
2022/01/08 12:56:49;;;;;;;4.17;2.20;;;7.60;33.60;;;;;;5070847;28;20036;-72
2022/01/08 12:59:16;;;;;;;5.03;2.37;;;7.60;34.10;;;;;;5069905;28;20028;-73
2022/01/08 13:01:47;;;;;;;4.67;2.50;;;7.60;33.60;;;;;;5072441;28;20104;-73
2022/01/08 13:04:16;;;;;;;3.83;2.20;;;7.60;33.80;;;;;;5075614;28;20104;-73
2022/01/08 13:06:43;;;;;;;2.93;1.90;;;7.60;33.60;;;;;;5076301;28;20082;-73
2022/01/08 13:09:10;;;;;;;3.57;2.30;;;7.60;34.40;;;;;;5076672;28;20032;-73
2022/01/08 13:11:37;;;;;;;4.67;1.77;;;7.60;32.70;;;;;;5076516;28;20024;-73
2022/01/08 13:14:04;;;;;;;3.67;2.17;;;7.60;33.50;;;;;;5076667;28;20021;-73
2022/01/08 13:16:34;;;;;;;4.37;2.10;;;7.60;33.30;;;;;;5076507;28;20052;-73
2022/01/08 13:19:08;;;;;;;3.37;1.97;;;7.70;33.10;;;;;;5076573;28;20469;-72